Time;durP1;ratioP1;P1;durP2;ratioP2;P2;SDS_P1;SDS_P2;PMS_P1;PMS_P2;Temp;Humidity;BMP_temperature;BMP_pressure;BME280_temperature;BME280_humidity;BME280_pressure;Samples;Min_cycle;Max_cycle;Signal;HPM_P1;HPM_P2
2021/12/02 00:01:06;;;;;;;2.67;2.40;;;;;;;;;;7333350;19;153595;-15
2021/12/02 00:03:41;;;;;;;2.20;2.00;;;;;;;;;;7333669;19;161777;-13
2021/12/02 00:06:14;;;;;;;2.42;2.28;;;;;;;;;;7334253;19;162562;-14
2021/12/02 00:08:46;;;;;;;2.20;2.00;;;;;;;;;;7334454;19;153926;-13
2021/12/02 00:11:19;;;;;;;3.00;2.33;;;;;;;;;;7332093;19;153571;-14
2021/12/02 00:13:55;;;;;;;;;;;;;;;;;;7332168;19;161752;-13
2021/12/02 00:16:37;;;;;;;2.00;1.90;;;;;;;;;;7330942;19;162892;-14
2021/12/02 00:22:00;;;;;;;2.17;1.90;;;;;;;;;;7332174;19;153467;-14
2021/12/02 00:24:37;;;;;;;1.95;1.85;;;;;;;;;;7334470;19;161958;-13
2021/12/02 00:27:10;;;;;;;1.98;1.88;;;;;;;;;;7330040;19;162347;-14
2021/12/02 00:29:47;;;;;;;2.30;2.10;;;;;;;;;;7328621;19;154217;-13
2021/12/02 00:32:20;;;;;;;1.95;1.70;;;;;;;;;;7331091;19;153555;-13
2021/12/02 00:34:54;;;;;;;2.03;1.92;;;;;;;;;;7333436;19;162047;-14
2021/12/02 00:37:27;;;;;;;1.92;1.83;;;;;;;;;;7331030;19;162396;-13
2021/12/02 00:39:58;;;;;;;;;;;;;;;;;;7331050;19;154195;-12
2021/12/02 00:42:30;;;;;;;2.38;1.98;;;;;;;;;;7331704;19;153368;-12
2021/12/02 00:45:02;;;;;;;1.90;1.80;;;;;;;;;;7334831;19;162163;-13
2021/12/02 00:47:35;;;;;;;1.75;1.65;;;;;;;;;;7329974;19;162359;-14
2021/12/02 00:50:11;;;;;;;1.80;1.70;;;;;;;;;;7331335;19;153975;-13
2021/12/02 00:52:43;;;;;;;1.83;1.73;;;;;;;;;;7331360;19;153626;-14
2021/12/02 00:55:15;;;;;;;1.80;1.70;;;;;;;;;;7334707;19;161923;-14
2021/12/02 00:57:50;;;;;;;1.60;1.50;;;;;;;;;;7330536;19;162518;-12
2021/12/02 01:00:22;;;;;;;1.85;1.75;;;;;;;;;;7330676;19;154052;-15
2021/12/02 01:02:53;;;;;;;1.80;1.70;;;;;;;;;;7329864;19;153892;-12
2021/12/02 01:05:28;;;;;;;1.90;1.80;;;;;;;;;;7333203;19;161994;-12
2021/12/02 01:08:02;;;;;;;1.88;1.77;;;;;;;;;;7327938;19;163115;-13
2021/12/02 01:10:34;;;;;;;2.10;2.00;;;;;;;;;;7330900;19;154079;-14
2021/12/02 01:13:06;;;;;;;1.70;1.60;;;;;;;;;;7330867;19;153861;-13
2021/12/02 01:15:38;;;;;;;1.60;1.50;;;;;;;;;;7330383;19;161795;-14
2021/12/02 01:18:09;;;;;;;1.48;1.40;;;;;;;;;;7330224;19;162509;-14
2021/12/02 01:20:46;;;;;;;1.85;1.75;;;;;;;;;;7330526;19;154010;-13
2021/12/02 01:23:19;;;;;;;1.67;1.58;;;;;;;;;;7329986;19;153877;-12
2021/12/02 01:25:52;;;;;;;1.60;1.50;;;;;;;;;;7328903;19;161731;-12
2021/12/02 01:28:25;;;;;;;1.63;1.52;;;;;;;;;;7330192;19;162573;-14
2021/12/02 01:30:57;;;;;;;1.70;1.60;;;;;;;;;;7330475;19;153967;-13
2021/12/02 01:33:30;;;;;;;1.60;1.30;;;;;;;;;;7329052;19;153651;-14
2021/12/02 01:36:06;;;;;;;;;;;;;;;;;;7326070;19;161949;-14
2021/12/02 11:35:12;;;;;;;0.64;0.64;;;;;;;;;;8301;19;4607184;-13
2021/12/02 11:37:46;;;;;;;1.67;0.93;;;;;;;;;;7363340;19;151744;-12
2021/12/02 11:40:21;;;;;;;1.15;0.70;;;;;;;;;;7364269;19;153546;-13
2021/12/02 11:42:53;;;;;;;0.73;0.73;;;;;;;;;;7364077;19;162004;-12
2021/12/02 11:45:26;;;;;;;0.70;0.70;;;;;;;;;;7363890;19;162511;-12
2021/12/02 11:47:58;;;;;;;0.80;0.80;;;;;;;;;;7366468;19;153895;-13
2021/12/02 11:50:33;;;;;;;0.70;0.70;;;;;;;;;;7364305;19;153626;-13
2021/12/02 11:53:04;;;;;;;0.68;0.68;;;;;;;;;;7363493;19;161931;-14
2021/12/02 11:55:38;;;;;;;0.63;0.63;;;;;;;;;;7363689;19;162321;-13
2021/12/02 11:58:10;;;;;;;0.70;0.70;;;;;;;;;;7359165;19;153915;-12
2021/12/02 12:00:42;;;;;;;2.47;0.90;;;;;;;;;;7366844;19;155291;-13
2021/12/02 12:03:16;;;;;;;0.88;0.80;;;;;;;;;;7361107;19;161936;-14
2021/12/02 12:05:58;;;;;;;0.75;0.70;;;;;;;;;;7366961;19;162617;-14
2021/12/02 12:08:34;;;;;;;0.75;0.75;;;;;;;;;;7354009;19;154213;-13
2021/12/02 12:11:27;;;;;;;2.05;0.77;;;;;;;;;;7337832;19;153655;-13
2021/12/02 12:14:06;;;;;;;0.73;0.73;;;;;;;;;;7335857;19;161801;-15
2021/12/02 12:16:41;;;;;;;0.60;0.57;;;;;;;;;;7337981;19;162345;-14
2021/12/02 12:19:22;;;;;;;0.80;0.73;;;;;;;;;;7339038;19;154036;-14
2021/12/02 12:21:58;;;;;;;0.77;0.77;;;;;;;;;;7332252;19;153946;-14
2021/12/02 12:24:45;;;;;;;0.85;0.73;;;;;;;;;;7333581;19;161788;-13
2021/12/02 12:27:18;;;;;;;0.50;0.50;;;;;;;;;;7333998;19;162354;-12
2021/12/02 12:29:51;;;;;;;1.15;0.70;;;;;;;;;;7331746;19;153982;-13
2021/12/02 12:32:48;;;;;;;0.70;0.70;;;;;;;;;;7337449;19;153759;-13
2021/12/02 12:35:29;;;;;;;0.82;0.75;;;;;;;;;;7336015;19;161760;-13
2021/12/02 12:38:07;;;;;;;0.60;0.60;;;;;;;;;;7336249;19;162558;-13
2021/12/02 12:40:50;;;;;;;0.82;0.60;;;;;;;;;;7335740;19;154127;-13
2021/12/02 12:43:38;;;;;;;0.60;0.60;;;;;;;;;;7335018;19;153642;-14
2021/12/02 12:46:24;;;;;;;1.20;0.63;;;;;;;;;;7334058;19;161829;-12
2021/12/02 12:48:57;;;;;;;0.85;0.60;;;;;;;;;;7336728;19;162641;-13
2021/12/02 12:51:35;;;;;;;0.88;0.70;;;;;;;;;;7336241;19;153748;-13
2021/12/02 12:54:23;;;;;;;0.68;0.68;;;;;;;;;;7334096;19;154502;-22
2021/12/02 12:57:06;;;;;;;1.85;0.70;;;;;;;;;;7335518;19;161841;-13
2021/12/02 12:59:54;;;;;;;0.90;0.70;;;;;;;;;;7335666;19;162639;-14
2021/12/02 13:02:27;;;;;;;1.35;0.77;;;;;;;;;;7333054;19;154094;-14
2021/12/02 13:05:00;;;;;;;0.50;0.50;;;;;;;;;;7336420;19;153482;-14
2021/12/02 13:07:43;;;;;;;0.77;0.77;;;;;;;;;;7335462;19;163123;-14
2021/12/02 13:10:25;;;;;;;0.60;0.60;;;;;;;;;;7333555;19;162448;-13
2021/12/02 13:12:59;;;;;;;0.63;0.50;;;;;;;;;;7335484;19;154164;-13
2021/12/02 13:15:31;;;;;;;1.17;0.80;;;;;;;;;;7336124;19;153525;-13
2021/12/02 13:18:04;;;;;;;0.70;0.70;;;;;;;;;;7335473;19;161902;-13
2021/12/02 13:20:39;;;;;;;1.00;0.70;;;;;;;;;;7331532;19;162433;-13
2021/12/02 13:23:36;;;;;;;0.50;0.50;;;;;;;;;;7334401;19;154169;-14
2021/12/02 13:26:27;;;;;;;0.55;0.55;;;;;;;;;;7330235;19;153525;-13
2021/12/02 13:29:00;;;;;;;0.50;0.50;;;;;;;;;;7334921;19;161912;-12
2021/12/02 13:31:32;;;;;;;0.50;0.50;;;;;;;;;;7333180;19;162531;-13
2021/12/02 13:34:06;;;;;;;0.50;0.50;;;;;;;;;;7334785;19;154057;-14
2021/12/02 13:36:46;;;;;;;0.50;0.50;;;;;;;;;;7331474;19;153670;-14
2021/12/02 13:39:21;;;;;;;0.80;0.80;;;;;;;;;;7330811;19;161878;-14
2021/12/02 13:41:59;;;;;;;1.38;0.80;;;;;;;;;;7335489;19;162370;-13
2021/12/02 13:44:36;;;;;;;0.50;0.50;;;;;;;;;;7330220;19;154023;-14
2021/12/02 13:47:13;;;;;;;0.73;0.73;;;;;;;;;;7335594;19;153395;-13
2021/12/02 13:49:49;;;;;;;0.60;0.60;;;;;;;;;;7332842;19;162038;-13
2021/12/02 13:52:24;;;;;;;0.60;0.50;;;;;;;;;;7333910;19;162728;-15
2021/12/02 13:54:59;;;;;;;0.50;0.50;;;;;;;;;;7335564;19;153869;-13
2021/12/02 13:57:38;;;;;;;0.82;0.50;;;;;;;;;;7332162;19;153770;-14
2021/12/02 14:00:17;;;;;;;0.45;0.45;;;;;;;;;;7333663;19;162103;-13
2021/12/02 14:03:02;;;;;;;0.55;0.55;;;;;;;;;;7335033;19;162270;-14
2021/12/02 14:05:37;;;;;;;0.80;0.52;;;;;;;;;;7332337;19;154243;-13
2021/12/02 14:08:12;;;;;;;0.60;0.60;;;;;;;;;;7334557;19;155558;-13
2021/12/02 14:10:44;;;;;;;0.50;0.50;;;;;;;;;;7334292;19;162059;-13
2021/12/02 14:13:19;;;;;;;0.50;0.50;;;;;;;;;;7334564;19;162526;-14
2021/12/02 14:15:52;;;;;;;0.65;0.65;;;;;;;;;;7332898;19;154041;-14
2021/12/02 14:18:29;;;;;;;0.57;0.57;;;;;;;;;;7332331;19;154272;-13
2021/12/02 14:21:04;;;;;;;0.65;0.55;;;;;;;;;;7334381;19;162033;-14
2021/12/02 14:23:38;;;;;;;0.70;0.43;;;;;;;;;;7330173;19;162727;-14
2021/12/02 14:26:13;;;;;;;0.40;0.40;;;;;;;;;;7333027;19;153960;-14
2021/12/02 14:28:49;;;;;;;0.45;0.45;;;;;;;;;;7334818;19;153547;-14
2021/12/02 14:31:26;;;;;;;0.60;0.60;;;;;;;;;;7333229;19;161824;-14
2021/12/02 14:33:57;;;;;;;0.63;0.63;;;;;;;;;;7334692;19;162572;-14
2021/12/02 14:36:30;;;;;;;0.63;0.60;;;;;;;;;;7328604;19;153949;-15
2021/12/02 14:39:03;;;;;;;0.63;0.60;;;;;;;;;;7331257;19;153909;-14
2021/12/02 14:41:36;;;;;;;;;;;;;;;;;;7328341;19;162069;-13
2021/12/02 14:44:13;;;;;;;0.50;0.50;;;;;;;;;;7330439;19;162636;-14
2021/12/02 14:46:46;;;;;;;0.80;0.70;;;;;;;;;;7329811;19;153939;-13
2021/12/02 14:49:24;;;;;;;0.70;0.70;;;;;;;;;;7330508;19;153491;-13
2021/12/02 14:51:58;;;;;;;1.67;0.70;;;;;;;;;;7329998;19;161820;-14
2021/12/02 14:54:31;;;;;;;0.73;0.65;;;;;;;;;;7329996;19;162454;-13
2021/12/02 14:57:05;;;;;;;0.50;0.50;;;;;;;;;;7329202;19;154082;-13
2021/12/02 14:59:39;;;;;;;0.98;0.45;;;;;;;;;;7328792;19;153582;-13
2021/12/02 15:02:28;;;;;;;0.57;0.50;;;;;;;;;;7330273;19;161893;-12
2021/12/02 15:05:03;;;;;;;0.52;0.52;;;;;;;;;;7329574;19;162449;-13
2021/12/02 15:07:36;;;;;;;0.98;0.80;;;;;;;;;;7329841;19;153923;-13
2021/12/02 15:10:15;;;;;;;0.93;0.68;;;;;;;;;;7328517;19;153557;-13
2021/12/02 15:12:47;;;;;;;0.60;0.60;;;;;;;;;;7329514;19;161793;-14
2021/12/02 15:15:23;;;;;;;0.50;0.50;;;;;;;;;;7329414;19;162111;-14
2021/12/02 15:17:59;;;;;;;1.42;0.60;;;;;;;;;;7329882;19;154054;-12
2021/12/02 15:20:32;;;;;;;0.75;0.70;;;;;;;;;;7327381;19;153500;-13
2021/12/02 15:23:05;;;;;;;0.70;0.70;;;;;;;;;;7329298;19;161811;-13
2021/12/02 15:25:39;;;;;;;1.35;0.80;;;;;;;;;;7329043;19;162505;-13
2021/12/02 15:28:18;;;;;;;0.75;0.70;;;;;;;;;;7329166;19;153943;-13
2021/12/02 15:30:55;;;;;;;0.60;0.60;;;;;;;;;;7329406;19;153520;-13
2021/12/02 15:33:29;;;;;;;0.70;0.70;;;;;;;;;;7328829;19;161711;-13
2021/12/02 15:36:03;;;;;;;0.80;0.80;;;;;;;;;;7327296;19;162624;-14
2021/12/02 15:38:36;;;;;;;0.60;0.60;;;;;;;;;;7328531;19;154071;-13
2021/12/02 15:41:10;;;;;;;0.70;0.70;;;;;;;;;;7326258;19;153556;-13
2021/12/02 15:43:50;;;;;;;1.00;0.45;;;;;;;;;;7330517;19;162167;-12
2021/12/02 15:46:31;;;;;;;0.73;0.60;;;;;;;;;;7334918;19;162525;-13
2021/12/02 15:49:10;;;;;;;0.55;0.50;;;;;;;;;;7335731;19;155175;-15
2021/12/02 15:51:42;;;;;;;0.93;0.70;;;;;;;;;;7334391;19;153605;-14
2021/12/02 15:54:14;;;;;;;0.55;0.55;;;;;;;;;;7335158;19;162084;-14
2021/12/02 15:56:47;;;;;;;0.83;0.70;;;;;;;;;;7334299;19;162409;-13
2021/12/02 15:59:25;;;;;;;0.63;0.60;;;;;;;;;;7334296;19;154056;-14
2021/12/02 16:02:10;;;;;;;0.50;0.50;;;;;;;;;;7335222;19;153365;-14
2021/12/02 16:04:50;;;;;;;1.08;0.70;;;;;;;;;;7333653;19;161994;-13
2021/12/02 16:07:26;;;;;;;0.47;0.47;;;;;;;;;;7333939;19;162487;-20
2021/12/02 16:10:15;;;;;;;0.57;0.57;;;;;;;;;;7336064;19;153967;-13
2021/12/02 16:12:46;;;;;;;0.75;0.70;;;;;;;;;;7335644;19;153567;-14
2021/12/02 16:15:20;;;;;;;0.70;0.70;;;;;;;;;;7334688;19;161877;-14
2021/12/02 16:17:54;;;;;;;0.60;0.60;;;;;;;;;;7335061;19;162457;-13
2021/12/02 16:20:26;;;;;;;0.80;0.80;;;;;;;;;;7333626;19;153986;-12
2021/12/02 16:22:57;;;;;;;0.70;0.68;;;;;;;;;;7334973;19;153470;-13
2021/12/02 16:25:28;;;;;;;0.57;0.57;;;;;;;;;;7332939;19;161803;-13
2021/12/02 16:28:01;;;;;;;0.60;0.60;;;;;;;;;;7334114;19;162527;-13
2021/12/02 16:30:36;;;;;;;0.60;0.60;;;;;;;;;;7334328;19;154148;-13
2021/12/02 16:33:10;;;;;;;0.65;0.65;;;;;;;;;;7333082;19;153665;-13
2021/12/02 16:35:42;;;;;;;0.60;0.60;;;;;;;;;;7332949;19;161844;-14
2021/12/02 16:38:14;;;;;;;0.85;0.85;;;;;;;;;;7333950;19;162638;-14
2021/12/02 16:40:46;;;;;;;0.82;0.60;;;;;;;;;;7331771;19;154180;-13
2021/12/02 16:43:24;;;;;;;0.63;0.63;;;;;;;;;;7334121;19;153662;-13
2021/12/02 16:46:00;;;;;;;0.52;0.52;;;;;;;;;;7333994;19;161921;-12
2021/12/02 16:48:37;;;;;;;0.52;0.52;;;;;;;;;;7332558;19;162591;-13
2021/12/02 16:51:09;;;;;;;1.13;0.68;;;;;;;;;;7333959;19;154028;-19
2021/12/02 16:53:40;;;;;;;0.73;0.73;;;;;;;;;;7332487;19;153517;-13
2021/12/02 16:56:12;;;;;;;0.88;0.68;;;;;;;;;;7333130;19;161791;-13
2021/12/02 16:58:44;;;;;;;0.47;0.47;;;;;;;;;;7333701;19;162399;-14
2021/12/02 17:01:20;;;;;;;0.70;0.70;;;;;;;;;;7331788;19;154071;-13
2021/12/02 17:03:57;;;;;;;0.60;0.60;;;;;;;;;;7332812;19;153571;-14
2021/12/02 17:06:30;;;;;;;0.57;0.57;;;;;;;;;;7332852;19;161825;-14
2021/12/02 17:09:02;;;;;;;0.98;0.70;;;;;;;;;;7331657;19;162656;-14
2021/12/02 17:11:39;;;;;;;0.70;0.70;;;;;;;;;;7332947;19;154050;-13
2021/12/02 17:14:12;;;;;;;0.50;0.40;;;;;;;;;;7332937;19;153924;-13
2021/12/02 17:16:43;;;;;;;0.75;0.60;;;;;;;;;;7331723;19;161857;-15
2021/12/02 17:19:20;;;;;;;0.60;0.60;;;;;;;;;;7331149;19;162470;-13
2021/12/02 17:21:56;;;;;;;0.75;0.70;;;;;;;;;;7330020;19;153970;-14
2021/12/02 17:24:29;;;;;;;0.70;0.70;;;;;;;;;;7332519;19;153539;-13
2021/12/02 17:27:06;;;;;;;0.52;0.52;;;;;;;;;;7331680;19;161988;-13
2021/12/02 17:29:38;;;;;;;0.60;0.60;;;;;;;;;;7332165;19;162185;-13
2021/12/02 17:32:13;;;;;;;0.60;0.60;;;;;;;;;;7332550;19;154125;-13
2021/12/02 17:34:47;;;;;;;0.93;0.70;;;;;;;;;;7332224;19;153532;-14
2021/12/02 17:37:18;;;;;;;0.60;0.60;;;;;;;;;;7329346;19;161795;-13
2021/12/02 17:39:54;;;;;;;0.50;0.50;;;;;;;;;;7334746;19;162649;-14
2021/12/02 17:42:26;;;;;;;0.40;0.40;;;;;;;;;;7333467;19;154129;-13
2021/12/02 17:44:57;;;;;;;0.57;0.57;;;;;;;;;;7335154;19;153665;-13
2021/12/02 17:47:31;;;;;;;0.70;0.70;;;;;;;;;;7335036;19;162012;-13
2021/12/02 17:50:08;;;;;;;0.57;0.57;;;;;;;;;;7334032;19;162387;-13
2021/12/02 17:52:40;;;;;;;0.77;0.70;;;;;;;;;;7333959;19;154018;-13
2021/12/02 17:55:12;;;;;;;0.60;0.60;;;;;;;;;;7334959;19;153692;-13
2021/12/02 17:57:43;;;;;;;0.93;0.63;;;;;;;;;;7335114;19;161856;-12
2021/12/02 18:00:21;;;;;;;0.65;0.65;;;;;;;;;;7334123;19;162435;-13
2021/12/02 18:02:52;;;;;;;0.75;0.75;;;;;;;;;;7331868;19;153987;-13
2021/12/02 18:05:27;;;;;;;0.63;0.63;;;;;;;;;;7333415;19;153874;-13
2021/12/02 18:07:58;;;;;;;0.70;0.68;;;;;;;;;;7331918;19;161771;-14
2021/12/02 18:10:31;;;;;;;0.60;0.60;;;;;;;;;;7334003;19;162347;-15
2021/12/02 18:13:02;;;;;;;0.60;0.60;;;;;;;;;;7334048;19;153815;-13
2021/12/02 18:15:34;;;;;;;0.50;0.50;;;;;;;;;;7332845;19;153696;-13
2021/12/02 18:18:08;;;;;;;0.50;0.50;;;;;;;;;;7333784;19;162179;-13
2021/12/02 18:20:43;;;;;;;0.60;0.60;;;;;;;;;;7333803;19;162363;-14
2021/12/02 18:23:14;;;;;;;0.50;0.50;;;;;;;;;;7333377;19;153955;-14
2021/12/02 18:25:46;;;;;;;0.63;0.60;;;;;;;;;;7333806;19;153569;-13
2021/12/02 18:28:17;;;;;;;0.52;0.52;;;;;;;;;;7333188;19;161941;-13
2021/12/02 18:30:48;;;;;;;0.50;0.50;;;;;;;;;;7333474;19;162648;-14
2021/12/02 18:33:20;;;;;;;0.50;0.50;;;;;;;;;;7333188;19;153972;-14
2021/12/02 18:35:54;;;;;;;0.50;0.50;;;;;;;;;;7333072;19;153561;-14
2021/12/02 18:38:25;;;;;;;0.60;0.60;;;;;;;;;;7332844;19;161841;-13
2021/12/02 18:40:57;;;;;;;0.60;0.60;;;;;;;;;;7333126;19;162705;-13
2021/12/02 18:43:31;;;;;;;0.50;0.50;;;;;;;;;;7333577;19;153975;-23
2021/12/02 18:46:03;;;;;;;0.50;0.50;;;;;;;;;;7332916;19;153588;-20
2021/12/02 18:48:36;;;;;;;0.50;0.50;;;;;;;;;;7332121;19;161797;-13
2021/12/02 18:51:10;;;;;;;0.50;0.50;;;;;;;;;;7332791;19;162401;-13
2021/12/02 18:53:41;;;;;;;0.80;0.60;;;;;;;;;;7329980;19;154056;-14
2021/12/02 18:56:12;;;;;;;0.57;0.57;;;;;;;;;;7329777;19;153560;-12
2021/12/02 18:58:44;;;;;;;0.57;0.57;;;;;;;;;;7329586;19;161742;-12
2021/12/02 19:01:16;;;;;;;0.60;0.60;;;;;;;;;;7328955;19;162337;-14
2021/12/02 19:03:47;;;;;;;1.17;1.00;;;;;;;;;;7329547;19;153967;-14
2021/12/02 19:06:27;;;;;;;0.70;0.70;;;;;;;;;;7329392;19;153506;-14
2021/12/02 19:23:00;;;;;;;0.50;0.50;;;;;;;;;;7334255;19;162589;-14
2021/12/02 19:28:16;;;;;;;0.85;0.75;;;;;;;;;;7338971;19;153569;-14
2021/12/02 19:30:48;;;;;;;0.90;0.60;;;;;;;;;;7338547;19;162074;-12
2021/12/02 19:33:19;;;;;;;0.60;0.60;;;;;;;;;;7337156;19;162460;-15
2021/12/02 19:35:51;;;;;;;0.90;0.60;;;;;;;;;;7338385;19;153967;-13
2021/12/02 19:38:24;;;;;;;0.40;0.40;;;;;;;;;;7339185;19;155841;-14
2021/12/02 19:40:56;;;;;;;0.70;0.70;;;;;;;;;;7338823;19;162858;-14
2021/12/02 19:43:30;;;;;;;0.55;0.55;;;;;;;;;;7336881;19;162397;-14
2021/12/02 19:46:01;;;;;;;0.63;0.63;;;;;;;;;;7338491;19;154034;-13
2021/12/02 19:48:33;;;;;;;0.50;0.50;;;;;;;;;;7338761;19;153720;-15
2021/12/02 19:51:05;;;;;;;0.50;0.50;;;;;;;;;;7338088;19;161838;-14
2021/12/02 19:53:39;;;;;;;0.50;0.50;;;;;;;;;;7338177;19;162152;-13
2021/12/02 19:56:10;;;;;;;0.50;0.50;;;;;;;;;;7338150;19;154149;-13
2021/12/02 19:58:42;;;;;;;0.50;0.50;;;;;;;;;;7336217;19;153671;-13
2021/12/02 20:01:13;;;;;;;0.50;0.50;;;;;;;;;;7338767;19;161962;-13
2021/12/02 20:03:46;;;;;;;0.85;0.70;;;;;;;;;;7335182;19;162438;-14
2021/12/02 20:06:18;;;;;;;0.85;0.50;;;;;;;;;;7334817;19;154135;-15
2021/12/02 20:08:54;;;;;;;0.40;0.40;;;;;;;;;;7337452;19;153591;-16
2021/12/02 20:11:30;;;;;;;0.45;0.45;;;;;;;;;;7333797;19;161870;-15
2021/12/02 20:14:02;;;;;;;0.50;0.50;;;;;;;;;;7334878;19;162493;-14
2021/12/02 20:16:36;;;;;;;0.55;0.50;;;;;;;;;;7337603;19;153979;-14
2021/12/02 20:19:08;;;;;;;3.67;0.70;;;;;;;;;;7338571;19;153551;-14
2021/12/02 20:21:40;;;;;;;0.50;0.50;;;;;;;;;;7337540;19;161904;-15
2021/12/02 20:24:14;;;;;;;0.57;0.57;;;;;;;;;;7334837;19;162660;-14
2021/12/02 20:26:46;;;;;;;0.40;0.40;;;;;;;;;;7337911;19;154036;-14
2021/12/02 20:29:18;;;;;;;0.40;0.40;;;;;;;;;;7333200;19;153593;-14
2021/12/02 20:31:51;;;;;;;0.50;0.50;;;;;;;;;;7335742;19;161819;-13
2021/12/02 20:34:23;;;;;;;0.50;0.50;;;;;;;;;;7335981;19;162572;-14
2021/12/02 20:36:57;;;;;;;0.75;0.60;;;;;;;;;;7334084;19;154187;-14
2021/12/02 20:39:31;;;;;;;0.40;0.40;;;;;;;;;;7337311;19;153870;-14
2021/12/02 20:42:03;;;;;;;0.52;0.50;;;;;;;;;;7333635;19;162137;-14
2021/12/02 20:44:43;;;;;;;1.30;0.50;;;;;;;;;;7334300;19;162696;-14
2021/12/02 20:47:21;;;;;;;0.65;0.57;;;;;;;;;;7337240;19;154063;-14
2021/12/02 20:49:57;;;;;;;0.98;0.60;;;;;;;;;;7337063;19;153508;-14
2021/12/02 20:52:31;;;;;;;0.60;0.60;;;;;;;;;;7336390;19;161815;-14
2021/12/02 20:55:09;;;;;;;0.60;0.60;;;;;;;;;;7335414;19;162373;-13
2021/12/02 20:57:42;;;;;;;0.50;0.50;;;;;;;;;;7335891;19;154159;-16
2021/12/02 21:00:17;;;;;;;0.50;0.50;;;;;;;;;;7333907;19;153931;-13
2021/12/02 21:02:49;;;;;;;0.40;0.40;;;;;;;;;;7335677;19;161981;-14
2021/12/02 21:05:21;;;;;;;0.60;0.60;;;;;;;;;;7335628;19;162391;-14
2021/12/02 21:07:54;;;;;;;0.60;0.60;;;;;;;;;;7336952;19;154024;-13
2021/12/02 21:10:30;;;;;;;1.10;0.50;;;;;;;;;;7336653;19;153537;-13
2021/12/02 21:13:05;;;;;;;0.60;0.60;;;;;;;;;;7335569;19;162072;-14
2021/12/02 21:15:37;;;;;;;0.75;0.75;;;;;;;;;;7335950;19;162561;-14
2021/12/02 21:18:08;;;;;;;0.50;0.50;;;;;;;;;;7330662;19;154005;-15
2021/12/02 21:20:39;;;;;;;0.80;0.80;;;;;;;;;;7335045;19;153675;-14
2021/12/02 21:23:12;;;;;;;0.50;0.50;;;;;;;;;;7335647;19;162275;-14
2021/12/02 21:25:53;;;;;;;0.60;0.60;;;;;;;;;;7333120;19;162713;-14
2021/12/02 21:28:26;;;;;;;0.93;0.50;;;;;;;;;;7334479;19;154285;-13
2021/12/02 21:31:13;;;;;;;0.50;0.50;;;;;;;;;;7333727;19;153715;-14
2021/12/02 21:33:47;;;;;;;0.40;0.40;;;;;;;;;;7331375;19;161859;-14
2021/12/02 21:36:34;;;;;;;0.45;0.45;;;;;;;;;;7333832;19;162954;-14
2021/12/02 21:39:08;;;;;;;0.60;0.60;;;;;;;;;;7335136;19;153995;-15
2021/12/02 21:41:50;;;;;;;0.77;0.63;;;;;;;;;;7331738;19;153785;-14
2021/12/02 21:44:25;;;;;;;0.50;0.50;;;;;;;;;;7330661;19;161791;-14
2021/12/02 21:46:57;;;;;;;1.13;0.60;;;;;;;;;;7331192;19;162342;-16
2021/12/02 21:49:33;;;;;;;0.50;0.43;;;;;;;;;;7335117;19;154115;-15
2021/12/02 21:52:07;;;;;;;0.40;0.40;;;;;;;;;;7335072;19;153631;-14
2021/12/02 21:54:41;;;;;;;0.73;0.60;;;;;;;;;;7333218;19;161868;-14
2021/12/02 21:57:24;;;;;;;0.65;0.65;;;;;;;;;;7334920;19;162416;-13
2021/12/02 22:00:06;;;;;;;0.40;0.40;;;;;;;;;;7334613;19;154236;-19
2021/12/02 22:02:44;;;;;;;1.33;0.47;;;;;;;;;;7333890;19;153571;-14
2021/12/02 22:05:18;;;;;;;0.77;0.40;;;;;;;;;;7334082;19;161896;-14
2021/12/02 22:07:50;;;;;;;0.60;0.60;;;;;;;;;;7334370;19;162349;-15
2021/12/02 22:10:21;;;;;;;0.40;0.40;;;;;;;;;;7334967;19;153984;-15
2021/12/02 22:12:55;;;;;;;0.50;0.50;;;;;;;;;;7333882;19;153570;-15
2021/12/02 22:15:26;;;;;;;0.47;0.47;;;;;;;;;;7331113;19;162019;-14
2021/12/02 22:17:58;;;;;;;0.70;0.50;;;;;;;;;;7334018;19;162378;-13
2021/12/02 22:20:30;;;;;;;0.50;0.50;;;;;;;;;;7332719;19;153965;-13
2021/12/02 22:23:01;;;;;;;0.40;0.40;;;;;;;;;;7333988;19;153495;-14
2021/12/02 22:25:32;;;;;;;0.50;0.50;;;;;;;;;;7333496;19;162110;-14
2021/12/02 22:28:06;;;;;;;0.68;0.68;;;;;;;;;;7333780;19;162767;-14
2021/12/02 22:30:38;;;;;;;0.50;0.50;;;;;;;;;;7332983;19;154037;-14
2021/12/02 22:33:09;;;;;;;0.40;0.40;;;;;;;;;;7330201;19;153507;-15
2021/12/02 22:35:43;;;;;;;0.85;0.50;;;;;;;;;;7328805;19;162333;-14
2021/12/02 22:38:14;;;;;;;0.65;0.50;;;;;;;;;;7333522;19;162550;-14
2021/12/02 22:40:47;;;;;;;1.08;0.50;;;;;;;;;;7332280;19;153979;-15
2021/12/02 22:43:21;;;;;;;0.50;0.50;;;;;;;;;;7334439;19;153493;-13
2021/12/02 22:45:52;;;;;;;0.50;0.50;;;;;;;;;;7331021;19;161964;-13
2021/12/02 22:48:24;;;;;;;0.47;0.47;;;;;;;;;;7330620;19;162501;-13
2021/12/02 22:50:57;;;;;;;0.45;0.40;;;;;;;;;;7332289;19;153954;-14
2021/12/02 22:53:30;;;;;;;0.30;0.30;;;;;;;;;;7333147;19;153546;-14
2021/12/02 22:56:01;;;;;;;0.47;0.47;;;;;;;;;;7329175;19;161865;-14
2021/12/02 22:58:35;;;;;;;0.40;0.40;;;;;;;;;;7332390;19;162638;-14
2021/12/02 23:01:12;;;;;;;0.43;0.43;;;;;;;;;;7333298;19;153975;-18
2021/12/02 23:03:44;;;;;;;0.30;0.30;;;;;;;;;;7331878;19;154154;-14
2021/12/02 23:06:16;;;;;;;0.40;0.40;;;;;;;;;;7328967;19;161760;-13
2021/12/02 23:08:47;;;;;;;0.98;0.60;;;;;;;;;;7332517;19;162727;-13
2021/12/02 23:11:20;;;;;;;0.50;0.50;;;;;;;;;;7333336;19;153849;-14
2021/12/02 23:13:54;;;;;;;0.50;0.50;;;;;;;;;;7329470;19;153796;-14
2021/12/02 23:16:25;;;;;;;0.50;0.50;;;;;;;;;;7328347;19;161799;-14
2021/12/02 23:18:56;;;;;;;0.50;0.50;;;;;;;;;;7331832;19;162400;-14
2021/12/02 23:21:28;;;;;;;0.80;0.50;;;;;;;;;;7332582;19;154026;-13
2021/12/02 23:24:00;;;;;;;0.50;0.50;;;;;;;;;;7330102;19;153456;-14
2021/12/02 23:26:35;;;;;;;0.73;0.40;;;;;;;;;;7330930;19;161779;-14
2021/12/02 23:29:09;;;;;;;0.40;0.40;;;;;;;;;;7331764;19;162537;-13
2021/12/02 23:31:40;;;;;;;0.45;0.45;;;;;;;;;;7326132;19;154189;-13
2021/12/02 23:34:12;;;;;;;0.43;0.43;;;;;;;;;;7332042;19;153432;-13
2021/12/02 23:36:44;;;;;;;0.50;0.50;;;;;;;;;;7329820;19;162280;-14
2021/12/02 23:39:15;;;;;;;0.50;0.50;;;;;;;;;;7328482;19;163376;-13
2021/12/02 23:41:46;;;;;;;0.40;0.40;;;;;;;;;;7331014;19;153971;-13
2021/12/02 23:44:20;;;;;;;0.35;0.35;;;;;;;;;;7328840;19;153541;-13
2021/12/02 23:46:52;;;;;;;0.40;0.40;;;;;;;;;;7327299;19;161908;-14
2021/12/02 23:49:23;;;;;;;0.60;0.60;;;;;;;;;;7328244;19;162339;-13
2021/12/02 23:51:55;;;;;;;0.55;0.55;;;;;;;;;;7331166;19;154002;-12
2021/12/02 23:54:26;;;;;;;0.50;0.50;;;;;;;;;;7327179;19;153668;-13
2021/12/02 23:56:57;;;;;;;0.40;0.40;;;;;;;;;;7327938;19;161839;-13
2021/12/02 23:59:33;;;;;;;0.60;0.40;;;;;;;;;;7327844;19;162749;-13
